Station Historical Data
Daily Summary for May 12, 2017 Units:  Metric    English   Both
« Previous Day
Next Day »
Daily Weekly Monthly Yearly Custom
  High: Low: Average:
Temperature: 27.3 °C 17.4 °C 21 °C
Dew Point: 18.7 °C 15.2 °C 16.7 °C
Humidity: 93% 52% 78%
Wind Speed: 1.6km/h 0km/h 0km/h
Wind Gust: 11.3km/h - -
Wind- - NW
Pressure: 1012.4 hPa 1007.3 hPa -
Precipitation: 20.83 mm    
Historical Graphs
 
 
Tabular Data for May 12, 2017
Time Temperature Dew Point Pressure Wind Wind Speed Wind Gust Humidity Rainfall Rate (Hourly) Conditions
00:00 20.7 °C 16.3 °C 1012.4 hPa Calm     76% 0 mm SCT
00:15 20.4 °C 16.3 °C 1012.1 hPa Calm     77% 0 mm SCT
00:30 20.4 °C 16.2 °C 1012.1 hPa Calm   1.6 km/h 77% 0 mm SCT
00:45 20.4 °C 16.4 °C 1012.1 hPa Calm   1.6 km/h 78% 0 mm SCT
01:00 20.6 °C 16.4 °C 1012.4 hPa Calm   1.6 km/h 77% 0 mm SCT
01:15 20.8 °C 16.7 °C 1012.1 hPa Calm   1.6 km/h 77% 0 mm SCT
01:45 20.8 °C 16.4 °C 1012.1 hPa Calm   1.6 km/h 76% 0 mm SCT
02:00 20.8 °C 16.4 °C 1012.1 hPa Calm   1.6 km/h 76% 0 mm SCT
02:15 20.7 °C 16.3 °C 1012.1 hPa Calm   1.6 km/h 76% 0 mm SCT
02:30 20.7 °C 16.3 °C 1012.1 hPa Calm   1.6 km/h 76% 0 mm SCT
02:45 20.5 °C 16.3 °C 1011.7 hPa Calm   3.2 km/h 77% 0 mm SCT
03:00 20.3 °C 16.3 °C 1011.4 hPa Calm     78% 0 mm SCT
03:15 20.1 °C 16.4 °C 1011.4 hPa Calm   1.6 km/h 79% 0 mm SCT
03:30 19.9 °C 16.4 °C 1011.4 hPa Calm   1.6 km/h 80% 0 mm SCT
03:45 19.4 °C 15.8 °C 1011.1 hPa Calm   1.6 km/h 80% 0 mm SCT
04:00 19.4 °C 15.8 °C 1011.1 hPa Calm     80% 0 mm SCT
04:15 19.4 °C 15.8 °C 1010.7 hPa Calm     80% 0 mm SCT
04:30 19.4 °C 15.8 °C 1011.1 hPa Calm     80% 0 mm SCT
04:45 19.4 °C 15.8 °C 1010.7 hPa Calm     80% 0 mm SCT
05:00 19.4 °C 15.8 °C 1010.7 hPa Calm     80% 0 mm SCT
05:15 19.4 °C 15.8 °C 1010.7 hPa Calm     80% 0 mm SCT
05:30 19.4 °C 15.8 °C 1010.7 hPa Calm     80% 0 mm SCT
05:45 19.4 °C 15.8 °C 1010.4 hPa Calm     80% 0 mm SCT
06:00 19.4 °C 15.8 °C 1010.4 hPa Calm     80% 0 mm SCT
06:15 19.4 °C 15.8 °C 1010 hPa Calm     80% 0 mm SCT
06:30 19.4 °C 15.8 °C 1010 hPa Calm     80% 0 mm SCT
06:45 19.4 °C 15.8 °C 1010 hPa Calm     80% 0 mm SCT
07:00 19.4 °C 15.8 °C 1010.4 hPa Calm     80% 0 mm SCT
07:15 19.4 °C 15.8 °C 1010.4 hPa Calm     80% 0 mm SCT
07:30 19.4 °C 15.8 °C 1010.4 hPa Calm     80% 0 mm SCT
07:45 19.4 °C 15.8 °C 1010.4 hPa Calm     80% 0 mm SCT
08:00 19.4 °C 15.8 °C 1010.4 hPa Calm     80% 0 mm SCT
08:15 19.4 °C 15.8 °C 1010.4 hPa Calm     80% 0 mm SCT
08:30 18.6 °C 16.9 °C 1010.4 hPa Calm     90% 0 mm SCT
08:45 19.1 °C 17.3 °C 1010.4 hPa Calm     89% 0 mm SCT
09:00 19.5 °C 17.3 °C 1010.4 hPa Calm     87% 0 mm SCT
09:15 19.9 °C 17.3 °C 1010.4 hPa Calm   3.2 km/h 85% 0 mm SCT
09:30 20.3 °C 17.5 °C 1010.4 hPa Calm   3.2 km/h 84% 0 mm SCT
09:45 20.5 °C 17.5 °C 1010 hPa Calm   1.6 km/h 83% 0 mm SCT
10:00 20.6 °C 17.4 °C 1010 hPa Calm     82% 0 mm SCT
10:15 20.8 °C 17.4 °C 1009.7 hPa Calm   1.6 km/h 81% 0 mm SCT
10:30 21.1 °C 17.7 °C 1010 hPa Calm   1.6 km/h 81% 0 mm SCT
10:45 21.4 °C 17.7 °C 1010 hPa Calm   1.6 km/h 79% 0 mm SCT
11:00 22 °C 18 °C 1010 hPa Calm   3.2 km/h 78% 0 mm SCT
11:15 22.3 °C 17.9 °C 1010 hPa Calm   1.6 km/h 76% 0 mm SCT
11:30 22.8 °C 18.2 °C 1010 hPa Calm   1.6 km/h 75% 0 mm SCT
11:45 23.4 °C 18.5 °C 1010 hPa Calm   3.2 km/h 74% 0 mm SCT
12:00 24.3 °C 18.5 °C 1010 hPa Calm   3.2 km/h 70% 0 mm SCT
12:15 24.7 °C 18.3 °C 1010 hPa Calm   4.8 km/h 68% 0 mm SCT
12:30 24.9 °C 17.8 °C 1010 hPa WNW 1.6 km/h 4.8 km/h 65% 0 mm SCT
12:45 26.1 °C 18.7 °C 1010 hPa NW 1.6 km/h 3.2 km/h 64% 0 mm SCT
13:00 27.3 °C 18 °C 1009.7 hPa Calm   3.2 km/h 57% 0 mm SCT
13:15 27.2 °C 16.4 °C 1009.7 hPa Calm   3.2 km/h 52% 0 mm SCT
13:30 26.9 °C 16.8 °C 1009.4 hPa Calm   4.8 km/h 54% 0 mm SCT
13:45 27.1 °C 16.7 °C 1009.4 hPa Calm   3.2 km/h 53% 0 mm SCT
14:00 27.1 °C 17.3 °C 1009 hPa Calm   3.2 km/h 55% 0 mm SCT
14:15 26.5 °C 16.7 °C 1009 hPa Calm   3.2 km/h 55% 0 mm SCT
14:30 26.9 °C 16.5 °C 1008.7 hPa Calm   4.8 km/h 53% 0 mm SCT
14:45 26.9 °C 16.8 °C 1008.4 hPa Calm   3.2 km/h 54% 0 mm SCT
15:00 26.9 °C 16.8 °C 1008 hPa Calm   4.8 km/h 54% 0 mm SCT
15:15 26.8 °C 17 °C 1008 hPa Calm   1.6 km/h 55% 0 mm SCT
15:30 26.6 °C 16.8 °C 1008 hPa Calm     55% 0 mm SCT
15:45 26.3 °C 16.8 °C 1007.7 hPa Calm   3.2 km/h 56% 0 mm SCT
16:00 26.1 °C 16.9 °C 1007.7 hPa Calm   1.6 km/h 57% 0 mm SCT
16:15 25.9 °C 17.3 °C 1007.7 hPa Calm   1.6 km/h 59% 0 mm SCT
16:30 25.6 °C 17.3 °C 1008 hPa Calm   1.6 km/h 60% 0 mm SCT
16:45 25.1 °C 17.8 °C 1007.7 hPa Calm   1.6 km/h 64% 0 mm SCT
17:00 24.8 °C 17.3 °C 1007.3 hPa Calm     63% 0 mm SCT
17:15 24.7 °C 17.4 °C 1007.3 hPa Calm   1.6 km/h 64% 0 mm SCT
17:30 22.8 °C 15.2 °C 1008 hPa Calm   8 km/h 62% 0 mm SCT
17:45 19.7 °C 16.2 °C 1009 hPa North 1.6 km/h 3.2 km/h 80% 3.3 mm RA
18:00 18.4 °C 16.2 °C 1009 hPa Calm   11.3 km/h 87% 12.45 mm RA
18:15 17.6 °C 15.6 °C 1008.7 hPa Calm   11.3 km/h 88% 4.32 mm SCT
18:30 17.4 °C 15.8 °C 1008.4 hPa Calm   1.6 km/h 90% 0.51 mm RA
18:45 17.6 °C 16.1 °C 1008 hPa Calm     91% 0 mm SCT
19:00 17.7 °C 16.2 °C 1008 hPa Calm     91% 0 mm SCT
19:15 17.8 °C 16.5 °C 1008 hPa Calm     92% 0 mm SCT
19:30 18.1 °C 16.7 °C 1008 hPa Calm     92% 0 mm SCT
19:45 18.1 °C 16.8 °C 1008 hPa Calm     92% 0 mm SCT
20:00 18.3 °C 16.9 °C 1008 hPa Calm     92% 0 mm SCT
20:15 18.2 °C 16.9 °C 1008 hPa Calm     92% 0 mm SCT
20:30 18.2 °C 16.9 °C 1008 hPa Calm     92% 0 mm SCT
20:45 18.2 °C 16.9 °C 1008 hPa Calm     92% 0 mm SCT
21:00 18.2 °C 16.9 °C 1008 hPa Calm     92% 0 mm SCT
21:15 18.2 °C 16.9 °C 1008.4 hPa Calm     92% 0 mm SCT
21:30 18.2 °C 16.9 °C 1008.4 hPa Calm     92% 0 mm SCT
21:45 18.2 °C 16.8 °C 1008.4 hPa Calm     92% 0 mm SCT
22:00 18.1 °C 16.8 °C 1008.4 hPa Calm     92% 0 mm SCT
22:15 18.1 °C 16.8 °C 1008.4 hPa Calm     92% 0 mm SCT
22:30 18.1 °C 16.9 °C 1008.4 hPa Calm     93% 0 mm SCT
22:45 18.1 °C 16.9 °C 1008.4 hPa Calm     93% 0 mm SCT
23:00 18 °C 16.8 °C 1008.4 hPa Calm     93% 0 mm SCT
23:15 17.9 °C 16.8 °C 1008.4 hPa Calm     93% 0 mm SCT
23:30 17.8 °C 16.7 °C 1008.4 hPa Calm     93% 0 mm SCT
23:45 17.7 °C 16.6 °C 1008.4 hPa Calm     93% 0 mm SCT
Piedmont Bend
Compliments of Weather Underground - 4 mb